createdAt,value
2022-08-20T00:02:32.249Z,99641.28
2022-08-20T00:05:45.151Z,99644.06
2022-08-20T00:08:51.721Z,99653.84
2022-08-20T00:11:57.410Z,99649.47
2022-08-20T00:15:03.180Z,99652.70
2022-08-20T00:18:12.445Z,99649.81
2022-08-20T00:21:20.783Z,99648.78
2022-08-20T00:24:26.804Z,99653.22
2022-08-20T00:27:32.704Z,99656.13
2022-08-20T00:30:39.663Z,99646.61
2022-08-20T00:33:45.529Z,99652.20
2022-08-20T00:36:51.621Z,99653.66
2022-08-20T00:39:57.218Z,99655.09
2022-08-20T00:43:07.981Z,99659.00
2022-08-20T00:46:15.182Z,99647.82
2022-08-20T00:49:23.874Z,99651.14
2022-08-20T00:52:31.371Z,99650.86
2022-08-20T00:55:37.584Z,99649.69
2022-08-20T00:58:42.047Z,99654.33
2022-08-20T01:01:55.058Z,99652.73
2022-08-20T01:04:58.657Z,99652.91
2022-08-20T01:08:05.156Z,99653.16
2022-08-20T01:11:13.575Z,99658.56
2022-08-20T01:14:27.998Z,99657.69
2022-08-20T01:17:39.303Z,99662.67
2022-08-20T01:20:50.823Z,99663.42
2022-08-20T01:24:10.048Z,99666.91
2022-08-20T01:27:18.060Z,99675.42
2022-08-20T01:30:23.288Z,99671.66
2022-08-20T01:33:28.828Z,99673.33
2022-08-20T01:36:43.021Z,99678.93
2022-08-20T01:39:49.139Z,99687.05
2022-08-20T01:42:58.747Z,99702.27
2022-08-20T01:46:06.861Z,99692.89
2022-08-20T01:49:13.669Z,99700.17
2022-08-20T01:52:22.046Z,99703.16
2022-08-20T01:55:28.657Z,99695.69
2022-08-20T01:58:36.289Z,99699.67
2022-08-20T02:01:50.940Z,99699.39
2022-08-20T02:04:57.655Z,99694.66
2022-08-20T02:08:03.412Z,99696.60
2022-08-20T02:11:09.599Z,99699.05
2022-08-20T02:14:15.261Z,99702.63
2022-08-20T02:17:22.060Z,99711.00
2022-08-20T02:20:33.593Z,99712.26
2022-08-20T02:23:40.248Z,99717.45
2022-08-20T02:26:45.853Z,99713.02
2022-08-20T02:29:51.705Z,99710.30
2022-08-20T02:32:58.066Z,99716.34
2022-08-20T02:36:04.690Z,99716.13
2022-08-20T02:39:10.443Z,99709.75
2022-08-20T02:42:15.995Z,99706.08
2022-08-20T02:45:22.324Z,99715.00
2022-08-20T02:48:31.308Z,99723.66
2022-08-20T02:51:36.310Z,99724.38
2022-08-20T02:54:42.717Z,99726.25
2022-08-20T02:57:48.538Z,99723.48
2022-08-20T03:00:56.985Z,99729.22
2022-08-20T03:04:04.254Z,99732.50
2022-08-20T03:07:09.618Z,99727.37
2022-08-20T03:10:15.589Z,99729.09
2022-08-20T03:13:20.813Z,99731.42
2022-08-20T03:16:26.331Z,99739.63
2022-08-20T03:19:33.325Z,99734.08
2022-08-20T03:22:39.456Z,99740.02
2022-08-20T03:25:44.813Z,99742.02
2022-08-20T03:28:50.224Z,99738.24
2022-08-20T03:31:55.959Z,99743.73
2022-08-20T03:35:00.980Z,99749.33
2022-08-20T03:38:06.549Z,99749.23
2022-08-20T03:41:12.934Z,99749.33
2022-08-20T03:44:19.620Z,99747.02
2022-08-20T03:47:25.439Z,99748.81
2022-08-20T03:50:31.579Z,99749.98
2022-08-20T03:53:39.153Z,99754.98
2022-08-20T03:56:44.601Z,99754.59
2022-08-20T03:59:49.798Z,99750.81
2022-08-20T04:02:56.973Z,99749.23
2022-08-20T04:06:02.933Z,99751.48
2022-08-20T04:09:09.752Z,99756.56
2022-08-20T04:12:18.888Z,99759.04
2022-08-20T04:15:26.099Z,99762.36
2022-08-20T04:18:32.898Z,99766.45
2022-08-20T04:21:38.651Z,99772.70
2022-08-20T04:24:44.890Z,99761.92
2022-08-20T04:27:56.169Z,99758.77
2022-08-20T04:31:01.754Z,99764.31
2022-08-20T04:34:07.436Z,99774.67
2022-08-20T04:37:16.756Z,99769.44
2022-08-20T04:40:42.565Z,99758.98
2022-08-20T04:43:50.364Z,99761.55
2022-08-20T04:46:56.706Z,99762.07
2022-08-20T04:50:04.520Z,99764.06
2022-08-20T04:53:11.210Z,99761.29
2022-08-20T04:56:17.112Z,99756.69
2022-08-20T04:59:22.745Z,99757.83
2022-08-20T05:02:28.307Z,99756.59
2022-08-20T05:05:34.926Z,99763.75
2022-08-20T05:08:40.298Z,99755.01
2022-08-20T05:11:47.069Z,99756.73
2022-08-20T05:14:53.947Z,99758.48
2022-08-20T05:18:00.711Z,99759.67
2022-08-20T05:21:08.554Z,99754.72
2022-08-20T05:24:14.448Z,99758.14
2022-08-20T05:27:24.546Z,99758.67
2022-08-20T05:30:27.717Z,99751.86
2022-08-20T05:33:28.950Z,99750.20
2022-08-20T05:36:22.581Z,99750.80
2022-08-20T05:39:27.119Z,99756.11
2022-08-20T05:42:33.628Z,99757.59
2022-08-20T05:45:38.959Z,99760.89
2022-08-20T05:48:44.788Z,99762.77
2022-08-20T05:51:50.493Z,99753.98
2022-08-20T05:54:57.170Z,99760.66
2022-08-20T05:58:02.768Z,99755.09
2022-08-20T06:01:09.695Z,99750.33
2022-08-20T06:04:31.628Z,99748.86
2022-08-20T06:07:37.419Z,99747.06
2022-08-20T06:10:43.741Z,99751.16
2022-08-20T06:13:49.905Z,99755.92
2022-08-20T06:16:57.719Z,99757.02
2022-08-20T06:20:03.436Z,99766.94
2022-08-20T06:23:10.836Z,99769.59
2022-08-20T06:26:16.030Z,99773.25
2022-08-20T06:29:17.003Z,99766.44
2022-08-20T06:32:32.147Z,99755.38
2022-08-20T06:35:29.539Z,99753.40
2022-08-20T06:38:35.295Z,99752.78
2022-08-20T06:41:42.206Z,99750.61
2022-08-20T06:44:47.671Z,99753.09
2022-08-20T06:47:57.639Z,99755.94
2022-08-20T06:51:03.250Z,99761.88
2022-08-20T06:54:08.708Z,99761.88
2022-08-20T06:57:13.846Z,99759.67
2022-08-20T07:00:23.802Z,99763.08
2022-08-20T07:03:29.883Z,99764.81
2022-08-20T07:06:35.803Z,99763.47
2022-08-20T07:09:42.569Z,99765.45
2022-08-20T07:12:48.466Z,99763.77
2022-08-20T07:15:56.421Z,99756.53
2022-08-20T07:19:01.965Z,99759.34
2022-08-20T07:22:06.789Z,99766.13
2022-08-20T07:25:04.957Z,99761.08
2022-08-20T07:28:16.717Z,99770.34
2022-08-20T07:31:42.111Z,99769.24
2022-08-20T07:34:48.401Z,99764.76
2022-08-20T07:37:55.851Z,99763.66
2022-08-20T07:41:02.189Z,99760.31
2022-08-20T07:44:08.017Z,99766.16
2022-08-20T07:47:15.826Z,99752.41
2022-08-20T07:50:22.186Z,99754.27
2022-08-20T07:53:26.949Z,99759.36
2022-08-20T07:56:35.622Z,99758.73
2022-08-20T07:59:42.339Z,99762.05
2022-08-20T08:02:48.921Z,99771.29
2022-08-20T08:06:01.281Z,99758.58
2022-08-20T08:09:08.464Z,99762.53
2022-08-20T08:12:15.468Z,99758.81
2022-08-20T08:15:24.057Z,99764.91
2022-08-20T08:18:36.006Z,99771.64
2022-08-20T08:21:41.409Z,99767.17
2022-08-20T08:24:57.446Z,99761.00
2022-08-20T08:27:55.588Z,99765.09
2022-08-20T08:31:02.434Z,99759.72
2022-08-20T08:34:07.935Z,99753.28
2022-08-20T08:37:13.650Z,99753.50
2022-08-20T08:40:20.527Z,99747.22
2022-08-20T08:43:31.204Z,99748.48
2022-08-20T08:46:38.844Z,99747.34
2022-08-20T08:49:47.392Z,99743.07
2022-08-20T08:52:53.439Z,99742.70
2022-08-20T08:56:00.031Z,99734.27
2022-08-20T08:59:04.825Z,99725.88
2022-08-20T09:02:12.908Z,99728.63
2022-08-20T09:05:22.309Z,99719.89
2022-08-20T09:08:30.114Z,99719.51
2022-08-20T09:11:37.667Z,99720.85
2022-08-20T09:14:45.063Z,99718.28
2022-08-20T09:17:50.699Z,99726.84
2022-08-20T09:20:57.655Z,99724.55
2022-08-20T09:24:03.501Z,99728.98
2022-08-20T09:27:09.312Z,99732.84
2022-08-20T09:32:50.214Z,99730.96
2022-08-20T09:35:56.638Z,99735.44
2022-08-20T09:39:03.108Z,99738.98
2022-08-20T09:42:08.784Z,99745.45
2022-08-20T09:45:14.674Z,99745.26
2022-08-20T09:48:21.322Z,99746.70
2022-08-20T09:51:27.976Z,99745.30
2022-08-20T09:54:36.429Z,99736.21
2022-08-20T09:57:42.045Z,99741.23
2022-08-20T10:00:47.469Z,99745.13
2022-08-20T10:03:55.348Z,99740.71
2022-08-20T10:07:01.225Z,99738.73
2022-08-20T10:10:07.490Z,99724.19
2022-08-20T10:13:13.397Z,99736.14
2022-08-20T10:16:19.389Z,99727.42
2022-08-20T10:19:24.893Z,99731.35
2022-08-20T10:22:23.175Z,99720.95
2022-08-20T10:25:24.872Z,99718.86
2022-08-20T10:28:29.945Z,99719.84
2022-08-20T10:31:34.821Z,99717.68
2022-08-20T10:34:40.152Z,99709.77
2022-08-20T10:37:45.957Z,99708.62
2022-08-20T10:40:52.248Z,99710.44
2022-08-20T10:43:58.886Z,99710.87
2022-08-20T10:47:04.867Z,99699.29
2022-08-20T10:50:12.740Z,99712.54
2022-08-20T10:53:19.925Z,99708.49
2022-08-20T10:56:25.747Z,99707.88
2022-08-20T10:59:30.616Z,99701.34
2022-08-20T11:02:36.410Z,99701.34
2022-08-20T11:05:41.852Z,99698.03
2022-08-20T11:08:47.711Z,99693.91
2022-08-20T11:11:47.319Z,99693.91
2022-08-20T11:14:52.066Z,99692.39
2022-08-20T11:17:58.139Z,99685.30
2022-08-20T11:21:04.209Z,99685.30
2022-08-20T11:24:09.637Z,99687.89
2022-08-20T11:27:15.408Z,99688.87
2022-08-20T11:30:23.904Z,99680.16
2022-08-20T11:33:30.285Z,99680.16
2022-08-20T11:36:37.166Z,99681.34
2022-08-20T11:39:42.992Z,99681.34
2022-08-20T11:43:13.226Z,99679.92
2022-08-20T11:45:56.006Z,99682.03
2022-08-20T11:49:01.765Z,99680.80
2022-08-20T11:52:08.554Z,99676.75
2022-08-20T11:55:13.948Z,99676.75
2022-08-20T11:58:22.057Z,99666.48
2022-08-20T12:01:27.683Z,99661.41
2022-08-20T12:04:33.713Z,99662.57
2022-08-20T12:07:40.314Z,99669.48
2022-08-20T12:10:46.172Z,99653.23
2022-08-20T12:13:47.794Z,99650.53
2022-08-20T12:16:52.574Z,99653.55
2022-08-20T12:19:58.374Z,99649.77
2022-08-20T12:23:05.185Z,99651.96
2022-08-20T12:26:10.780Z,99653.88
2022-08-20T12:29:16.632Z,99636.11
2022-08-20T12:32:23.518Z,99625.17
2022-08-20T12:35:30.139Z,99609.47
2022-08-20T12:38:37.171Z,99616.39
2022-08-20T12:41:42.729Z,99608.21
2022-08-20T12:44:48.618Z,99610.45
2022-08-20T12:47:57.364Z,99610.45
2022-08-20T12:50:57.516Z,99596.57
2022-08-20T12:53:50.225Z,99596.57
2022-08-20T12:56:56.134Z,99595.03
2022-08-20T13:00:03.714Z,99615.20
2022-08-20T13:03:10.513Z,99615.20
2022-08-20T13:06:16.335Z,99635.08
2022-08-20T13:09:23.029Z,99635.08
2022-08-20T13:12:28.398Z,99645.41
2022-08-20T13:15:34.879Z,99645.41
2022-08-20T13:18:40.720Z,99651.37
2022-08-20T13:21:46.654Z,99621.95
2022-08-20T13:24:54.772Z,99612.84
2022-08-20T13:28:00.494Z,99610.14
2022-08-20T13:31:08.568Z,99610.14
2022-08-20T13:34:15.200Z,99659.31
2022-08-20T13:37:33.568Z,99659.31
2022-08-20T13:40:39.541Z,99646.56
2022-08-20T13:43:45.532Z,99668.88
2022-08-20T13:46:51.184Z,99704.58
2022-08-20T13:49:58.767Z,99734.41
2022-08-20T13:53:05.433Z,99732.08
2022-08-20T13:56:13.064Z,99731.72
2022-08-20T13:59:19.057Z,99741.03
2022-08-20T14:02:25.008Z,99760.28
2022-08-20T14:05:31.722Z,99774.46
2022-08-20T14:08:37.623Z,99799.68
2022-08-20T14:11:43.613Z,99817.43
2022-08-20T14:14:49.112Z,99815.12
2022-08-20T14:17:59.579Z,99800.98
2022-08-20T14:21:04.719Z,99803.86
2022-08-20T14:24:09.672Z,99811.88
2022-08-20T14:27:15.074Z,99822.40
2022-08-20T14:30:23.728Z,99816.46
2022-08-20T14:33:29.222Z,99812.00
2022-08-20T14:36:28.136Z,99816.59
2022-08-20T14:39:34.390Z,99816.81
2022-08-20T14:42:40.001Z,99808.07
2022-08-20T14:45:46.645Z,99798.32
2022-08-20T14:48:53.235Z,99801.44
2022-08-20T14:52:00.578Z,99799.83
2022-08-20T14:55:06.400Z,99801.72
2022-08-20T14:58:11.884Z,99788.38
2022-08-20T15:01:17.633Z,99782.59
2022-08-20T15:04:25.676Z,99774.58
2022-08-20T15:07:41.201Z,99760.48
2022-08-20T15:10:48.388Z,99756.01
2022-08-20T15:13:54.394Z,99750.22
2022-08-20T15:17:00.797Z,99757.56
2022-08-20T15:20:07.304Z,99757.05
2022-08-20T15:23:14.157Z,99760.27
2022-08-20T15:26:13.346Z,99772.00
2022-08-20T15:29:22.647Z,99773.41
2022-08-20T15:32:26.808Z,99786.45
2022-08-20T15:35:31.872Z,99793.25
2022-08-20T15:38:37.153Z,99798.84
2022-08-20T15:41:42.517Z,99803.59
2022-08-20T15:44:47.294Z,99807.52
2022-08-20T15:48:12.728Z,99808.93
2022-08-20T15:51:44.641Z,99809.00
2022-08-20T15:54:54.997Z,99814.88
2022-08-20T15:58:14.660Z,99831.16
2022-08-20T16:01:48.202Z,99823.15
2022-08-20T16:05:26.955Z,99825.11
2022-08-20T16:08:54.964Z,99821.16
2022-08-20T16:12:14.284Z,99826.42
2022-08-20T16:15:45.207Z,99818.87
2022-08-20T16:18:51.209Z,99818.21
2022-08-20T16:21:58.104Z,99813.92
2022-08-20T16:24:57.353Z,99814.94
2022-08-20T16:28:18.589Z,99817.52
2022-08-20T16:31:28.651Z,99815.84
2022-08-20T16:34:52.621Z,99811.95
2022-08-20T16:38:23.832Z,99816.11
2022-08-20T16:41:34.313Z,99808.05
2022-08-20T16:44:56.397Z,99804.28
2022-08-20T16:48:02.476Z,99805.84
2022-08-20T16:51:26.431Z,99801.10
2022-08-20T16:54:34.088Z,99804.12
2022-08-20T16:57:40.963Z,99805.73
2022-08-20T17:00:48.188Z,99809.97
2022-08-20T17:03:54.244Z,99812.31
2022-08-20T17:07:01.418Z,99813.20
2022-08-20T17:10:08.379Z,99819.88
2022-08-20T17:13:30.046Z,99810.10
2022-08-20T17:16:35.926Z,99807.64
2022-08-20T17:19:43.552Z,99805.36
2022-08-20T17:22:57.338Z,99804.47
2022-08-20T17:26:15.283Z,99802.30
2022-08-20T17:29:33.887Z,99805.14
2022-08-20T17:32:43.416Z,99800.37
2022-08-20T17:35:49.715Z,99801.76
2022-08-20T17:39:14.450Z,99803.77
2022-08-20T17:42:26.279Z,99806.82
2022-08-20T17:45:44.333Z,99801.48
2022-08-20T17:49:00.772Z,99800.37
2022-08-20T17:52:08.532Z,99795.44
2022-08-20T17:55:17.498Z,99797.44
2022-08-20T17:58:26.731Z,99791.94
2022-08-20T18:01:37.015Z,99792.55
2022-08-20T18:04:55.134Z,99790.81
2022-08-20T18:08:41.354Z,99794.70
2022-08-20T18:11:59.699Z,99787.48
2022-08-20T18:15:23.675Z,99790.70
2022-08-20T18:18:35.650Z,99787.44
2022-08-20T18:22:23.087Z,99779.10
2022-08-20T18:25:50.848Z,99785.23
2022-08-20T18:29:14.573Z,99781.55
2022-08-20T18:32:17.004Z,99776.52
2022-08-20T18:35:28.783Z,99780.99
2022-08-20T18:38:44.471Z,99787.02
2022-08-20T18:41:56.341Z,99792.33
2022-08-20T18:45:03.156Z,99789.87
2022-08-20T18:48:08.960Z,99791.96
2022-08-20T18:51:16.761Z,99788.06
2022-08-20T18:54:22.614Z,99788.48
2022-08-20T18:57:41.458Z,99790.08
2022-08-20T19:00:53.249Z,99786.83
2022-08-20T19:04:06.114Z,99794.89
2022-08-20T19:07:15.734Z,99796.75
2022-08-20T19:10:56.038Z,99799.75
2022-08-20T19:14:24.301Z,99798.97
2022-08-20T19:17:47.072Z,99794.39
2022-08-20T19:20:56.766Z,99791.41
2022-08-20T19:24:08.588Z,99787.52
2022-08-20T19:27:18.990Z,99792.16
2022-08-20T19:30:26.422Z,99793.93
2022-08-20T19:33:45.172Z,99791.48
2022-08-20T19:36:51.765Z,99792.38
2022-08-20T19:39:59.334Z,99791.08
2022-08-20T19:43:07.081Z,99792.09
2022-08-20T19:46:13.175Z,99787.29
2022-08-20T19:49:49.839Z,99784.64
2022-08-20T19:53:15.715Z,99780.19
2022-08-20T19:56:34.899Z,99777.07
2022-08-20T19:59:42.662Z,99782.06
2022-08-20T20:02:49.092Z,99773.14
2022-08-20T20:06:16.943Z,99772.52
2022-08-20T20:09:36.817Z,99780.59
2022-08-20T20:12:42.256Z,99775.28
2022-08-20T20:15:48.679Z,99775.92
2022-08-20T20:19:22.797Z,99778.75
2022-08-20T20:22:29.054Z,99778.48
2022-08-20T20:25:52.129Z,99782.80
2022-08-20T20:29:10.937Z,99779.61
2022-08-20T20:32:18.243Z,99777.92
2022-08-20T20:35:24.094Z,99776.43
2022-08-20T20:38:41.598Z,99777.84
2022-08-20T20:41:48.047Z,99779.83
2022-08-20T20:44:57.717Z,99778.63
2022-08-20T20:48:06.092Z,99777.16
2022-08-20T20:51:12.399Z,99777.09
2022-08-20T20:54:20.621Z,99772.48
2022-08-20T20:57:39.125Z,99771.91
2022-08-20T21:00:46.597Z,99776.03
2022-08-20T21:03:52.822Z,99779.50
2022-08-20T21:06:58.799Z,99780.05
2022-08-20T21:10:06.660Z,99783.12
2022-08-20T21:13:12.132Z,99777.76
2022-08-20T21:16:19.622Z,99770.41
2022-08-20T21:19:26.297Z,99774.00
2022-08-20T21:22:26.123Z,99773.68
2022-08-20T21:25:32.279Z,99774.67
2022-08-20T21:28:37.393Z,99763.00
2022-08-20T21:31:48.212Z,99772.09
2022-08-20T21:34:55.230Z,99773.00
2022-08-20T21:38:01.411Z,99775.38
2022-08-20T21:41:07.070Z,99769.95
2022-08-20T21:44:17.515Z,99771.31
2022-08-20T21:47:18.879Z,99779.56
2022-08-20T21:50:24.219Z,99778.00
2022-08-20T21:53:30.641Z,99778.97
2022-08-20T21:56:36.339Z,99781.59
2022-08-20T21:59:42.830Z,99781.86
2022-08-20T22:02:48.701Z,99776.17
2022-08-20T22:05:54.466Z,99769.36
2022-08-20T22:09:02.011Z,99765.46
2022-08-20T22:12:07.542Z,99757.22
2022-08-20T22:15:13.284Z,99753.14
2022-08-20T22:18:18.297Z,99750.63
2022-08-20T22:21:27.676Z,99749.97
2022-08-20T22:24:32.282Z,99742.94
2022-08-20T22:27:37.688Z,99746.21
2022-08-20T22:30:43.111Z,99749.68
2022-08-20T22:33:48.854Z,99747.50
2022-08-20T22:36:54.413Z,99740.97
2022-08-20T22:40:00.856Z,99738.20
2022-08-20T22:43:06.455Z,99745.48
2022-08-20T22:46:14.101Z,99745.77
2022-08-20T22:49:19.804Z,99744.75
2022-08-20T22:52:25.432Z,99738.99
2022-08-20T22:55:32.773Z,99733.02
2022-08-20T22:58:38.524Z,99732.91
2022-08-20T23:01:45.155Z,99732.66
2022-08-20T23:04:51.654Z,99729.48
2022-08-20T23:07:58.310Z,99732.50
2022-08-20T23:11:04.603Z,99728.28
2022-08-20T23:14:11.154Z,99730.25
2022-08-20T23:17:22.214Z,99734.59
2022-08-20T23:20:30.953Z,99727.00
2022-08-20T23:23:39.009Z,99734.17
2022-08-20T23:26:52.514Z,99732.67
2022-08-20T23:29:50.870Z,99740.14
2022-08-20T23:32:57.823Z,99738.51
2022-08-20T23:36:04.403Z,99735.66
2022-08-20T23:39:09.291Z,99728.70
2022-08-20T23:42:17.594Z,99723.28
2022-08-20T23:45:24.685Z,99721.70
2022-08-20T23:48:29.487Z,99719.07
2022-08-20T23:51:35.459Z,99717.75
2022-08-20T23:54:46.233Z,99716.24
2022-08-20T23:57:52.215Z,99715.83
